Time;durP1;ratioP1;P1;durP2;ratioP2;P2;SDS_P1;SDS_P2;PMS_P1;PMS_P2;Temp;Humidity;BMP_temperature;BMP_pressure;BME280_temperature;BME280_humidity;BME280_pressure;Samples;Min_cycle;Max_cycle;Signal;HPM_P1;HPM_P2
2023/12/23 00:00:41;;;;;;;0.50;0.50;;;;;;;6.62;53.82;95431.44;4985504;28;20050;-68
2023/12/23 00:03:08;;;;;;;0.50;0.50;;;;;;;6.49;53.77;95410.13;4986114;28;20046;-68
2023/12/23 00:05:35;;;;;;;0.50;0.50;;;;;;;6.51;53.69;95432.53;4985654;28;20062;-68
2023/12/23 00:08:01;;;;;;;0.50;0.50;;;;;;;5.73;53.61;95302.81;4999971;28;20137;-68
2023/12/23 00:10:29;;;;;;;0.57;0.57;;;;;;;6.61;53.88;95424.34;4985483;28;20054;-68
2023/12/23 00:12:56;;;;;;;0.50;0.50;;;;;;;6.07;53.93;95366.66;4983935;28;20072;-68
2023/12/23 00:15:22;;;;;;;0.60;0.60;;;;;;;6.61;53.37;95423.59;5000456;28;20061;-69
2023/12/23 00:17:50;;;;;;;0.60;0.60;;;;;;;6.46;53.14;95394.41;4985296;28;20050;-68
2023/12/23 00:20:17;;;;;;;0.50;0.50;;;;;;;5.89;53.14;95299.81;4984602;28;20116;-69
2023/12/23 00:22:44;;;;;;;0.50;0.50;;;;;;;6.61;52.49;95418.84;4999225;28;20505;-69
2023/12/23 00:25:11;;;;;;;0.50;0.50;;;;;;;6.61;53.26;95418.84;4985435;28;21003;-68
2023/12/23 00:27:38;;;;;;;0.60;0.60;;;;;;;6.63;53.57;95441.25;4984689;28;20057;-67
2023/12/23 00:30:06;;;;;;;0.50;0.50;;;;;;;6.63;53.75;95452.28;4985003;28;20141;-68
2023/12/23 00:32:32;;;;;;;0.50;0.50;;;;;;;6.67;54.03;95463.31;4984824;28;20528;-67
2023/12/23 00:34:59;;;;;;;0.55;0.55;;;;;;;6.63;53.23;95441.25;4983335;28;20069;-67
2023/12/23 00:37:26;;;;;;;0.50;0.50;;;;;;;6.24;54.00;95366.00;4984731;28;20077;-67
2023/12/23 00:39:53;;;;;;;0.60;0.60;;;;;;;6.42;53.81;95397.13;4984766;28;20054;-68
2023/12/23 00:42:19;;;;;;;0.50;0.50;;;;;;;6.63;54.44;95426.72;4984913;28;20141;-66
2023/12/23 00:44:46;;;;;;;0.50;0.50;;;;;;;6.44;54.76;95403.03;4999982;28;20042;-67
2023/12/23 00:47:14;;;;;;;0.50;0.50;;;;;;;6.19;54.13;95380.09;4984608;28;20051;-67
2023/12/23 00:49:41;;;;;;;0.50;0.50;;;;;;;6.49;54.49;95437.63;5000149;28;20058;-68
2023/12/23 00:52:08;;;;;;;0.60;0.60;;;;;;;6.13;54.59;95400.88;4969343;28;20137;-68
2023/12/23 00:54:35;;;;;;;0.50;0.50;;;;;;;4.21;54.21;95066.03;4985426;28;20057;-68
2023/12/23 00:57:01;;;;;;;0.50;0.50;;;;;;;6.21;54.32;95391.50;4984819;28;20248;-68
2023/12/23 00:59:28;;;;;;;0.50;0.50;;;;;;;6.34;54.29;95398.25;4984889;28;20054;-68
2023/12/23 01:01:55;;;;;;;0.50;0.50;;;;;;;6.53;54.64;95425.47;4983127;28;20095;-69
2023/12/23 01:04:21;;;;;;;0.50;0.50;;;;;;;6.53;54.29;95428.22;4985241;28;20054;-68
2023/12/23 01:06:50;;;;;;;0.50;0.50;;;;;;;6.42;54.08;95405.38;4982999;28;20054;-69
2023/12/23 01:09:17;;;;;;;0.50;0.50;;;;;;;6.51;53.68;95411.34;4984387;28;20085;-68
2023/12/23 01:11:43;;;;;;;0.50;0.50;;;;;;;6.57;53.29;95412.56;4999646;28;20058;-68
2023/12/23 01:14:10;;;;;;;0.50;0.50;;;;;;;6.59;53.59;95412.16;4984702;28;20054;-66
2023/12/23 01:16:37;;;;;;;0.50;0.50;;;;;;;6.32;52.96;95364.88;4999417;28;20141;-67
2023/12/23 01:19:04;;;;;;;0.60;0.60;;;;;;;5.59;52.54;95236.00;4984633;28;20050;-68
2023/12/23 01:21:30;;;;;;;0.50;0.50;;;;;;;6.03;52.54;95349.34;4999175;28;20054;-67
2023/12/23 01:23:57;;;;;;;0.55;0.55;;;;;;;6.35;52.83;95366.06;4984603;28;20066;-67
2023/12/23 01:26:24;;;;;;;0.50;0.50;;;;;;;5.52;52.33;95231.25;4984760;28;20054;-67
2023/12/23 01:28:51;;;;;;;0.50;0.50;;;;;;;6.63;51.84;95397.25;4984564;28;20137;-69
2023/12/23 01:31:18;;;;;;;0.50;0.50;;;;;;;6.56;52.05;95405.44;4984190;28;20062;-68
2023/12/23 01:33:45;;;;;;;0.50;0.50;;;;;;;6.67;51.42;95420.06;4987173;28;20062;-67
2023/12/23 01:36:12;;;;;;;0.52;0.52;;;;;;;6.73;50.86;95404.00;5002686;28;20057;-67
2023/12/23 01:38:39;;;;;;;0.50;0.50;;;;;;;6.79;50.85;95414.25;5003259;28;20052;-67
2023/12/23 01:41:06;;;;;;;0.60;0.60;;;;;;;6.88;50.64;95400.91;5003187;28;20054;-68
2023/12/23 01:43:33;;;;;;;0.55;0.55;;;;;;;6.67;50.57;95373.28;4988201;28;20066;-68
2023/12/23 01:46:01;;;;;;;0.50;0.50;;;;;;;6.94;50.80;95360.81;5002699;28;20190;-69
2023/12/23 01:48:32;;;;;;;0.52;0.52;;;;;;;6.65;50.17;95304.13;4986913;28;20046;-68
2023/12/23 01:50:59;;;;;;;0.60;0.60;;;;;;;6.92;50.64;95374.22;4987731;28;20057;-68
2023/12/23 01:53:26;;;;;;;0.60;0.60;;;;;;;7.01;50.14;95410.41;4988165;28;20062;-68
2023/12/23 01:55:54;;;;;;;0.55;0.55;;;;;;;6.46;50.12;95296.19;4987759;28;20050;-68
2023/12/23 01:58:21;;;;;;;0.60;0.60;;;;;;;7.03;50.17;95383.28;4987533;28;20512;-67
2023/12/23 02:00:49;;;;;;;0.50;0.50;;;;;;;7.12;49.70;95382.91;4972066;28;20054;-67
2023/12/23 02:03:15;;;;;;;0.60;0.60;;;;;;;6.73;50.26;95319.50;4968665;28;20057;-68
2023/12/23 02:05:45;;;;;;;0.60;0.60;;;;;;;7.35;50.03;95403.44;4968484;28;20142;-68
2023/12/23 02:08:13;;;;;;;0.57;0.57;;;;;;;7.45;49.98;95402.69;4982752;28;20624;-69
2023/12/23 02:10:40;;;;;;;0.60;0.60;;;;;;;7.45;50.33;95390.88;4982965;28;20054;-68
2023/12/23 02:13:17;;;;;;;0.50;0.50;;;;;;;7.46;49.69;95357.41;4968442;28;20050;-67
2023/12/23 02:15:47;;;;;;;0.57;0.57;;;;;;;7.11;49.89;95272.00;4968493;28;20090;-68
2023/12/23 02:18:13;;;;;;;0.60;0.60;;;;;;;6.84;49.82;95237.78;4968601;28;20498;-67
2023/12/23 02:20:40;;;;;;;0.60;0.60;;;;;;;7.16;49.85;95301.13;4982624;28;20046;-68
2023/12/23 02:23:07;;;;;;;0.60;0.60;;;;;;;7.32;49.90;95321.59;4996639;28;20496;-68
2023/12/23 02:25:34;;;;;;;0.57;0.57;;;;;;;7.12;49.84;95331.41;4986187;28;20109;-68
2023/12/23 02:28:07;;;;;;;0.60;0.60;;;;;;;7.34;49.81;95330.28;4987041;28;20065;-67
2023/12/23 02:30:39;;;;;;;0.60;0.60;;;;;;;7.26;50.31;95349.91;4987766;28;20058;-67
2023/12/23 02:33:06;;;;;;;0.60;0.60;;;;;;;7.17;50.71;95309.00;4987752;28;20051;-67
2023/12/23 02:35:33;;;;;;;0.60;0.60;;;;;;;7.39;50.41;95403.44;4987315;28;20242;-67
2023/12/23 02:38:00;;;;;;;0.60;0.60;;;;;;;7.38;50.19;95347.56;4987326;28;20050;-67
2023/12/23 02:40:27;;;;;;;0.60;0.60;;;;;;;6.68;50.59;95253.84;4987264;28;20492;-67
2023/12/23 02:42:54;;;;;;;0.60;0.60;;;;;;;7.42;50.92;95315.31;4987400;28;20042;-68
2023/12/23 02:45:20;;;;;;;0.60;0.60;;;;;;;7.29;51.65;95303.13;4986164;28;20416;-68
2023/12/23 02:47:48;;;;;;;0.60;0.60;;;;;;;7.25;51.23;95305.09;4986923;28;20536;-67
2023/12/23 02:50:15;;;;;;;0.60;0.60;;;;;;;7.12;51.22;95290.09;4985341;28;20486;-66
2023/12/23 02:52:42;;;;;;;0.60;0.60;;;;;;;7.30;51.13;95296.41;5001864;28;20054;-68
2023/12/23 02:55:09;;;;;;;0.60;0.60;;;;;;;7.14;51.29;95274.00;4986489;28;20054;-67
2023/12/23 02:57:36;;;;;;;0.57;0.57;;;;;;;6.54;51.38;95187.81;4984864;28;20483;-68
2023/12/23 03:00:03;;;;;;;0.50;0.50;;;;;;;7.21;51.69;95282.25;4986637;28;20054;-67
2023/12/23 03:02:30;;;;;;;0.60;0.60;;;;;;;7.14;51.59;95271.25;4986686;28;20050;-68
2023/12/23 03:04:57;;;;;;;0.60;0.60;;;;;;;7.42;51.77;95298.81;4985613;28;20133;-68
2023/12/23 03:07:24;;;;;;;0.60;0.60;;;;;;;7.46;51.36;95294.06;4975248;28;20141;-67
2023/12/23 03:09:51;;;;;;;0.60;0.60;;;;;;;7.44;51.60;95279.94;4986623;28;20050;-67
2023/12/23 03:12:18;;;;;;;0.57;0.57;;;;;;;6.98;51.88;95251.56;4986222;28;20081;-67
2023/12/23 03:14:44;;;;;;;0.60;0.60;;;;;;;7.40;52.50;95262.59;4986370;28;20054;-67
2023/12/23 03:17:11;;;;;;;0.50;0.50;;;;;;;7.43;52.93;95278.34;5001014;28;20145;-68
2023/12/23 03:19:41;;;;;;;0.60;0.60;;;;;;;7.41;52.98;95269.66;5001304;28;20061;-68
2023/12/23 03:22:07;;;;;;;0.60;0.60;;;;;;;7.23;52.76;95241.34;4986300;28;20042;-66
2023/12/23 03:24:34;;;;;;;0.60;0.60;;;;;;;7.31;53.23;95264.97;4986477;28;20058;-68
2023/12/23 03:27:01;;;;;;;0.60;0.60;;;;;;;7.31;53.18;95269.69;4985738;28;20060;-68
2023/12/23 03:29:28;;;;;;;0.60;0.60;;;;;;;7.30;53.09;95290.91;4986819;28;20050;-66
2023/12/23 03:31:54;;;;;;;0.50;0.50;;;;;;;7.30;53.16;95290.91;5000715;28;20069;-68
2023/12/23 03:34:21;;;;;;;0.50;0.50;;;;;;;7.30;52.88;95290.91;5000874;28;20585;-68
2023/12/23 03:36:48;;;;;;;0.60;0.60;;;;;;;7.34;52.91;95253.16;4985959;28;20104;-67
2023/12/23 03:39:15;;;;;;;0.60;0.60;;;;;;;7.36;53.27;95261.81;4984902;28;20065;-67
2023/12/23 03:41:41;;;;;;;0.60;0.60;;;;;;;7.37;53.24;95251.56;5000781;28;20050;-68
2023/12/23 03:44:08;;;;;;;0.60;0.60;;;;;;;7.21;55.06;95260.22;4985605;28;20105;-67
2023/12/23 03:46:35;;;;;;;0.60;0.60;;;;;;;6.99;56.08;95275.13;4985614;28;20101;-69
2023/12/23 03:49:02;;;;;;;0.60;0.60;;;;;;;6.73;56.56;95256.22;5000535;28;20088;-69
2023/12/23 03:51:29;;;;;;;0.50;0.50;;;;;;;6.69;56.63;95271.91;4985792;28;20054;-68
2023/12/23 03:53:55;;;;;;;0.50;0.50;;;;;;;4.37;57.06;94929.56;4986375;28;20042;-69
2023/12/23 03:56:22;;;;;;;0.50;0.50;;;;;;;6.60;57.25;95277.00;4985104;28;20417;-68
2023/12/23 03:58:49;;;;;;;0.52;0.52;;;;;;;6.29;57.90;95225.44;4985531;28;20055;-68
2023/12/23 04:01:17;;;;;;;0.50;0.50;;;;;;;6.51;57.79;95253.78;5000235;28;20060;-69
2023/12/23 04:03:45;;;;;;;0.50;0.50;;;;;;;6.47;57.77;95226.28;4985890;28;20055;-68
2023/12/23 04:06:12;;;;;;;0.50;0.50;;;;;;;5.83;58.70;95153.78;4985153;28;20100;-67
2023/12/23 04:08:40;;;;;;;0.50;0.50;;;;;;;6.50;58.28;95241.19;4985384;28;20516;-68
2023/12/23 04:11:08;;;;;;;0.50;0.50;;;;;;;6.47;58.51;95237.28;5000181;28;20547;-67
2023/12/23 04:13:36;;;;;;;0.50;0.50;;;;;;;6.55;58.64;95233.38;4985187;28;20054;-66
2023/12/23 04:16:04;;;;;;;0.50;0.50;;;;;;;6.56;57.73;95218.44;4985706;28;20058;-68
2023/12/23 04:18:31;;;;;;;0.60;0.60;;;;;;;6.26;57.71;95165.72;4985704;28;20077;-68
2023/12/23 04:20:58;;;;;;;0.50;0.50;;;;;;;6.71;57.24;95225.56;4985290;28;20058;-68
2023/12/23 04:23:25;;;;;;;0.50;0.50;;;;;;;6.78;57.13;95236.56;4984907;28;20062;-68
2023/12/23 04:25:52;;;;;;;0.60;0.60;;;;;;;6.82;57.48;95248.38;4985155;28;20069;-67
2023/12/23 04:28:24;;;;;;;0.50;0.50;;;;;;;6.84;57.24;95245.22;4985083;28;20050;-68
2023/12/23 04:30:54;;;;;;;0.52;0.52;;;;;;;6.78;57.60;95275.06;4985492;28;20137;-67
2023/12/23 04:33:22;;;;;;;0.50;0.50;;;;;;;6.83;56.97;95277.47;4999551;28;20050;-68
2023/12/23 04:35:49;;;;;;;0.60;0.60;;;;;;;6.89;57.51;95270.38;4984563;28;20054;-68
2023/12/23 04:38:16;;;;;;;0.60;0.60;;;;;;;6.48;57.39;95183.84;4985149;28;20061;-68
2023/12/23 04:40:43;;;;;;;0.60;0.60;;;;;;;4.60;56.67;94856.84;4985605;28;20530;-68
2023/12/23 04:43:09;;;;;;;0.50;0.50;;;;;;;6.72;56.32;95188.59;4985040;28;20061;-68
2023/12/23 04:45:37;;;;;;;0.60;0.60;;;;;;;7.23;56.29;95257.88;4984537;28;20150;-68
2023/12/23 04:48:04;;;;;;;0.60;0.60;;;;;;;7.17;56.45;95269.66;4985053;28;20050;-68
2023/12/23 04:50:30;;;;;;;0.52;0.52;;;;;;;7.24;56.75;95281.47;4984812;28;20058;-68
2023/12/23 04:52:58;;;;;;;0.60;0.60;;;;;;;6.58;56.48;95139.06;4985107;28;20064;-67
2023/12/23 04:55:25;;;;;;;0.60;0.60;;;;;;;6.97;56.23;95211.44;4984644;28;20065;-68
2023/12/23 04:57:52;;;;;;;0.60;0.60;;;;;;;7.32;56.83;95261.03;4985137;28;20050;-68
2023/12/23 05:00:18;;;;;;;0.50;0.50;;;;;;;7.36;56.57;95272.84;4984855;28;20740;-69
2023/12/23 05:02:45;;;;;;;0.60;0.60;;;;;;;7.29;56.85;95256.31;4984761;28;20500;-69
2023/12/23 05:05:12;;;;;;;0.50;0.50;;;;;;;7.26;56.70;95254.34;4985016;28;20054;-69
2023/12/23 05:07:39;;;;;;;0.50;0.50;;;;;;;7.30;57.13;95257.88;4984153;28;20089;-68
2023/12/23 05:10:06;;;;;;;0.60;0.60;;;;;;;7.30;56.93;95244.09;4988796;28;20066;-69
2023/12/23 05:12:33;;;;;;;0.60;0.60;;;;;;;7.16;57.12;95246.84;5003525;28;20054;-69
2023/12/23 05:15:00;;;;;;;0.60;0.60;;;;;;;7.18;57.26;95261.00;4987437;28;20145;-69
2023/12/23 05:17:26;;;;;;;0.60;0.60;;;;;;;6.61;57.49;95171.28;4988804;28;20050;-68
2023/12/23 05:19:55;;;;;;;0.57;0.57;;;;;;;7.01;57.66;95222.44;4987253;28;20050;-69
2023/12/23 05:22:22;;;;;;;0.60;0.60;;;;;;;7.17;57.80;95253.94;4988424;28;20504;-69
2023/12/23 05:24:49;;;;;;;0.50;0.50;;;;;;;6.89;57.34;95220.84;4988289;28;20264;-68
2023/12/23 05:27:15;;;;;;;0.60;0.60;;;;;;;7.19;57.23;95265.31;4988509;28;20081;-68
2023/12/23 05:29:42;;;;;;;0.60;0.60;;;;;;;7.16;57.89;95252.34;5003721;28;20516;-68
2023/12/23 05:32:09;;;;;;;0.60;0.60;;;;;;;7.23;57.10;95266.13;5003397;28;20081;-69
2023/12/23 05:34:37;;;;;;;0.60;0.60;;;;;;;7.29;57.15;95267.31;4988112;28;20439;-69
2023/12/23 05:37:04;;;;;;;0.60;0.60;;;;;;;7.31;57.58;95270.47;5002933;28;20060;-69
2023/12/23 05:39:30;;;;;;;0.60;0.60;;;;;;;7.36;57.07;95261.81;4987364;28;20122;-69
2023/12/23 05:41:58;;;;;;;0.60;0.60;;;;;;;7.21;57.84;95260.22;5003324;28;20072;-69
2023/12/23 05:44:25;;;;;;;0.60;0.60;;;;;;;7.20;58.62;95264.16;5003367;28;20058;-69
2023/12/23 05:46:52;;;;;;;0.60;0.60;;;;;;;7.30;58.24;95274.38;4988217;28;20047;-70
2023/12/23 05:49:19;;;;;;;0.60;0.60;;;;;;;7.27;58.51;95261.41;5003159;28;20060;-68
2023/12/23 05:51:52;;;;;;;0.63;0.63;;;;;;;7.16;58.35;95268.88;5001948;28;20503;-69
2023/12/23 05:54:18;;;;;;;0.60;0.60;;;;;;;7.01;58.51;95278.28;5002774;28;20212;-68
2023/12/23 05:56:45;;;;;;;0.60;0.60;;;;;;;6.95;58.17;95260.59;5001298;28;20666;-69
2023/12/23 05:59:12;;;;;;;0.57;0.57;;;;;;;6.75;59.53;95236.56;5001802;28;20495;-69
2023/12/23 06:01:39;;;;;;;0.50;0.50;;;;;;;6.42;59.69;95218.38;4987098;28;20229;-68
2023/12/23 06:04:06;;;;;;;0.60;0.60;;;;;;;6.38;60.05;95209.34;4987186;28;20058;-69
2023/12/23 06:06:32;;;;;;;0.60;0.60;;;;;;;6.54;60.75;95248.31;4986710;28;20136;-69
2023/12/23 06:08:59;;;;;;;0.55;0.55;;;;;;;6.39;61.83;95257.66;5001988;28;20050;-68
2023/12/23 06:11:26;;;;;;;0.50;0.50;;;;;;;6.73;60.09;95267.22;4987535;28;20120;-68
2023/12/23 06:13:53;;;;;;;0.50;0.50;;;;;;;7.03;58.95;95264.94;4986054;28;20619;-68
2023/12/23 06:16:20;;;;;;;0.60;0.60;;;;;;;7.29;58.09;95256.31;4987826;28;20062;-69
2023/12/23 06:18:46;;;;;;;0.60;0.60;;;;;;;7.63;57.02;95287.78;4987748;28;20081;-68
2023/12/23 06:21:13;;;;;;;0.60;0.60;;;;;;;7.15;55.96;95206.75;4987313;28;20833;-68
2023/12/23 06:23:40;;;;;;;0.70;0.70;;;;;;;8.23;55.59;95270.41;4987463;28;20051;-68
2023/12/23 06:26:09;;;;;;;0.70;0.70;;;;;;;8.14;54.76;95206.59;4987107;28;20623;-67
2023/12/23 06:28:36;;;;;;;0.60;0.60;;;;;;;6.36;53.76;94865.28;4987431;28;20137;-69
2023/12/23 06:31:03;;;;;;;0.70;0.70;;;;;;;8.98;52.82;95234.56;4987744;28;20109;-69
2023/12/23 06:33:30;;;;;;;0.70;0.70;;;;;;;9.16;52.32;95231.69;4987147;28;20165;-68
2023/12/23 06:35:57;;;;;;;0.60;0.60;;;;;;;9.26;52.08;95233.63;4985572;28;20062;-69
2023/12/23 06:38:23;;;;;;;0.70;0.70;;;;;;;9.37;51.62;95217.75;5001811;28;20054;-69
2023/12/23 06:40:50;;;;;;;0.70;0.70;;;;;;;9.43;51.30;95227.16;4987279;28;20050;-68
2023/12/23 06:43:17;;;;;;;0.70;0.70;;;;;;;9.50;50.73;95216.03;4987236;28;20054;-69
2023/12/23 06:46:04;;;;;;;0.75;0.75;;;;;;;9.09;50.65;95140.59;4986546;28;20531;-68
2023/12/23 06:48:31;;;;;;;0.70;0.70;;;;;;;9.78;50.68;95215.81;4986809;28;20054;-69
2023/12/23 06:51:00;;;;;;;0.70;0.70;;;;;;;9.66;49.87;95174.84;4986782;28;20136;-68
2023/12/23 06:53:27;;;;;;;0.70;0.70;;;;;;;10.06;49.87;95204.44;4986974;28;20141;-70
2023/12/23 06:55:54;;;;;;;0.80;0.80;;;;;;;10.19;49.44;95238.72;4985325;28;20078;-69
2023/12/23 06:58:29;;;;;;;0.77;0.77;;;;;;;9.83;49.27;95187.69;4986885;28;20050;-69
2023/12/23 07:00:56;;;;;;;0.80;0.80;;;;;;;10.41;48.93;95281.56;4985180;28;20144;-69
2023/12/23 07:03:23;;;;;;;0.80;0.80;;;;;;;10.49;48.93;95280.28;4986768;28;20057;-69
2023/12/23 07:05:50;;;;;;;0.80;0.80;;;;;;;9.93;48.60;95137.03;5001847;28;20047;-69
2023/12/23 07:08:17;;;;;;;0.80;0.80;;;;;;;10.34;48.20;95170.94;4986280;28;20069;-70
2023/12/23 07:10:44;;;;;;;0.80;0.80;;;;;;;10.73;48.11;95221.06;5001389;28;20129;-69
2023/12/23 07:13:12;;;;;;;0.80;0.80;;;;;;;10.85;48.18;95210.63;4986817;28;20081;-67
2023/12/23 07:15:39;;;;;;;0.90;0.90;;;;;;;10.83;48.20;95218.56;4986364;28;20073;-69
2023/12/23 07:18:07;;;;;;;0.88;0.88;;;;;;;10.43;47.98;95146.31;4986273;28;20501;-69
2023/12/23 07:20:33;;;;;;;0.80;0.80;;;;;;;10.87;47.96;95219.31;4986094;28;20050;-69
2023/12/23 07:23:00;;;;;;;0.80;0.80;;;;;;;10.66;48.07;95221.16;4986654;28;20055;-69
2023/12/23 07:25:27;;;;;;;0.90;0.90;;;;;;;10.49;48.25;95191.72;4986179;28;20061;-68
2023/12/23 07:27:54;;;;;;;0.80;0.80;;;;;;;10.66;48.10;95199.00;5000973;28;20046;-70
2023/12/23 07:30:20;;;;;;;0.90;0.90;;;;;;;10.84;47.94;95209.06;4985428;28;20050;-69
2023/12/23 07:32:47;;;;;;;0.82;0.82;;;;;;;11.04;47.59;95227.38;5000483;28;20421;-69
2023/12/23 07:35:15;;;;;;;0.90;0.90;;;;;;;10.98;47.47;95225.47;4985808;28;20085;-68
2023/12/23 07:37:46;;;;;;;0.80;0.80;;;;;;;11.14;47.35;95233.97;4984627;28;20069;-69
2023/12/23 07:40:13;;;;;;;0.80;0.80;;;;;;;10.73;47.19;95149.06;5001186;28;20226;-69
2023/12/23 07:42:40;;;;;;;0.85;0.85;;;;;;;11.09;47.19;95196.44;4984519;28;20046;-69
2023/12/23 07:45:07;;;;;;;0.80;0.80;;;;;;;11.50;46.71;95237.75;4986026;28;20444;-69
2023/12/23 07:47:33;;;;;;;0.80;0.80;;;;;;;11.64;46.89;95263.31;5000540;28;20054;-67
2023/12/23 07:50:00;;;;;;;0.80;0.80;;;;;;;11.33;46.62;95211.09;4986349;28;20065;-66
2023/12/23 07:52:27;;;;;;;0.90;0.90;;;;;;;11.84;46.42;95271.69;5000765;28;20572;-68
2023/12/23 07:54:56;;;;;;;0.90;0.90;;;;;;;11.69;46.43;95248.19;4986356;28;20054;-67
2023/12/23 07:57:22;;;;;;;0.90;0.90;;;;;;;11.33;46.34;95200.81;4985801;28;20054;-67
2023/12/23 07:59:49;;;;;;;0.90;0.90;;;;;;;11.85;46.37;95295.47;4985473;28;20051;-67
2023/12/23 08:02:17;;;;;;;0.90;0.90;;;;;;;11.14;46.09;95162.72;4984945;28;20054;-69
2023/12/23 08:04:43;;;;;;;0.90;0.90;;;;;;;11.95;46.62;95305.59;4985702;28;20125;-66
2023/12/23 08:07:10;;;;;;;0.80;0.80;;;;;;;11.34;46.32;95198.81;4985009;28;20521;-68
2023/12/23 08:09:37;;;;;;;0.90;0.90;;;;;;;11.90;46.57;95306.88;4984723;28;20050;-66
2023/12/23 08:12:04;;;;;;;0.85;0.85;;;;;;;11.90;46.32;95308.88;5000404;28;20476;-67
2023/12/23 08:14:31;;;;;;;0.90;0.90;;;;;;;12.01;46.55;95312.25;4985959;28;20062;-67
2023/12/23 08:16:58;;;;;;;0.95;0.95;;;;;;;12.08;46.31;95309.34;4984965;28;20503;-67
2023/12/23 08:19:25;;;;;;;0.98;0.98;;;;;;;11.67;46.44;95233.94;4985532;28;20073;-67
2023/12/23 08:21:52;;;;;;;0.95;0.95;;;;;;;11.60;46.31;95245.91;4985366;28;20054;-67
2023/12/23 08:24:18;;;;;;;0.90;0.90;;;;;;;12.06;46.42;95307.00;4985949;28;20039;-67
2023/12/23 08:26:45;;;;;;;0.90;0.90;;;;;;;12.28;46.65;95335.19;4984891;28;20047;-67
2023/12/23 08:29:12;;;;;;;0.90;0.90;;;;;;;12.26;46.17;95320.94;4983851;28;20064;-67
2023/12/23 08:31:45;;;;;;;0.90;0.90;;;;;;;11.84;46.99;95282.78;4984931;28;20054;-66
2023/12/23 08:34:12;;;;;;;;;;;;;;;12.39;46.87;95379.44;4984239;28;20050;-67
2023/12/23 08:36:39;;;;;;;1.02;1.02;;;;;;;12.10;47.65;95385.44;4965291;28;20375;-67
2023/12/23 08:39:06;;;;;;;0.90;0.90;;;;;;;11.81;47.96;95334.38;4965390;28;20437;-68
2023/12/23 08:41:35;;;;;;;0.90;0.90;;;;;;;12.02;48.33;95394.28;4965176;28;20046;-67
2023/12/23 08:44:04;;;;;;;0.90;0.90;;;;;;;12.11;48.21;95409.22;4965493;28;20081;-67
2023/12/23 08:46:31;;;;;;;0.90;0.90;;;;;;;12.09;48.52;95433.81;4964209;28;20121;-66
2023/12/23 08:49:01;;;;;;;0.90;0.90;;;;;;;11.83;49.43;95436.56;4965357;28;20540;-67
2023/12/23 08:51:31;;;;;;;1.00;1.00;;;;;;;11.61;49.85;95449.94;4979740;28;20137;-67
2023/12/23 08:53:58;;;;;;;0.80;0.80;;;;;;;11.49;50.79;95427.50;4965685;28;20424;-68
2023/12/23 08:56:26;;;;;;;0.90;0.90;;;;;;;11.25;53.35;95428.59;4979971;28;20513;-66
2023/12/23 08:58:53;;;;;;;0.90;0.90;;;;;;;10.83;55.14;95423.53;4965442;28;20109;-66
2023/12/23 09:01:20;;;;;;;0.90;0.90;;;;;;;10.93;56.33;95439.22;4965470;28;20442;-68
2023/12/23 09:03:47;;;;;;;0.82;0.82;;;;;;;11.10;58.25;95449.31;4980427;28;20524;-66
2023/12/23 09:06:14;;;;;;;0.80;0.80;;;;;;;11.04;59.01;95437.13;4964648;28;20433;-68
2023/12/23 09:08:42;;;;;;;0.85;0.85;;;;;;;11.05;59.72;95481.03;4965613;28;20063;-68
2023/12/23 09:11:09;;;;;;;0.80;0.80;;;;;;;11.15;59.74;95479.38;4964986;28;20062;-65
2023/12/23 09:13:36;;;;;;;0.80;0.80;;;;;;;11.18;60.48;95511.78;4965485;28;20051;-66
2023/12/23 09:16:04;;;;;;;0.90;0.90;;;;;;;11.15;59.32;95509.84;4964832;28;20456;-66
2023/12/23 09:18:31;;;;;;;0.80;0.80;;;;;;;10.76;56.42;95517.72;4965265;28;20055;-66
2023/12/23 09:20:58;;;;;;;0.90;0.90;;;;;;;10.80;55.83;95551.72;4964782;28;20057;-67
2023/12/23 09:23:25;;;;;;;0.82;0.82;;;;;;;10.60;54.62;95551.47;4976184;28;20046;-65
2023/12/23 09:25:52;;;;;;;0.70;0.70;;;;;;;10.42;55.18;95576.50;4984535;28;20428;-65
2023/12/23 09:28:19;;;;;;;0.80;0.80;;;;;;;9.58;58.57;95515.28;4999275;28;20057;-66
2023/12/23 09:30:46;;;;;;;0.80;0.80;;;;;;;9.38;61.79;95599.81;4999188;28;20528;-66
2023/12/23 09:33:13;;;;;;;0.70;0.70;;;;;;;8.72;65.36;95612.47;4984585;28;20054;-65
2023/12/23 09:35:40;;;;;;;0.70;0.70;;;;;;;8.04;68.67;95522.50;4984690;28;20057;-65
2023/12/23 09:38:07;;;;;;;0.60;0.60;;;;;;;8.11;71.25;95618.25;4984736;28;20174;-65
2023/12/23 09:40:34;;;;;;;0.60;0.60;;;;;;;7.92;73.74;95629.59;4982871;28;20630;-66
2023/12/23 09:43:01;;;;;;;0.60;0.60;;;;;;;7.66;74.41;95597.56;4984844;28;20445;-66
2023/12/23 09:45:30;;;;;;;0.60;0.60;;;;;;;7.26;73.66;95539.91;4984284;28;20144;-67
2023/12/23 09:47:57;;;;;;;0.60;0.60;;;;;;;7.88;74.33;95612.22;4984168;28;20046;-67
2023/12/23 09:50:24;;;;;;;0.60;0.60;;;;;;;7.97;73.14;95634.69;4984305;28;20441;-65
2023/12/23 09:52:55;;;;;;;0.50;0.50;;;;;;;7.99;71.79;95608.34;4984470;28;20078;-66
2023/12/23 09:55:23;;;;;;;0.60;0.60;;;;;;;8.14;69.49;95647.78;4986359;28;20062;-65
2023/12/23 09:57:49;;;;;;;0.60;0.60;;;;;;;7.71;68.74;95575.16;5002481;28;20050;-66
2023/12/23 10:00:17;;;;;;;0.70;0.70;;;;;;;7.85;68.66;95607.50;4987715;28;20086;-65
2023/12/23 10:02:44;;;;;;;0.52;0.52;;;;;;;7.66;69.92;95628.69;4987701;28;20057;-67
2023/12/23 10:05:12;;;;;;;0.60;0.60;;;;;;;7.53;69.38;95591.59;4987826;28;20054;-65
2023/12/23 10:07:39;;;;;;;0.65;0.65;;;;;;;7.98;69.70;95661.91;5002210;28;20070;-67
2023/12/23 10:10:07;;;;;;;0.60;0.60;;;;;;;7.99;70.54;95690.25;4987751;28;20453;-66
2023/12/23 10:12:33;;;;;;;0.50;0.50;;;;;;;7.99;69.83;95662.69;4987026;28;20516;-69
2023/12/23 10:15:00;;;;;;;0.60;0.60;;;;;;;7.60;68.21;95597.13;4987587;28;20057;-66
2023/12/23 10:17:27;;;;;;;0.60;0.60;;;;;;;8.26;66.66;95688.84;4985602;28;20058;-65
2023/12/23 10:19:55;;;;;;;0.60;0.60;;;;;;;8.32;64.53;95692.78;4987278;28;20137;-65
2023/12/23 10:22:25;;;;;;;0.60;0.60;;;;;;;8.41;65.46;95704.28;4987864;28;20424;-64
2023/12/23 10:24:52;;;;;;;0.60;0.60;;;;;;;8.47;65.24;95713.75;4987579;28;20441;-66
2023/12/23 10:27:20;;;;;;;0.60;0.60;;;;;;;8.38;63.43;95724.34;4987471;28;20054;-66
2023/12/23 10:29:51;;;;;;;0.60;0.60;;;;;;;8.22;64.89;95654.91;4987414;28;20500;-65
2023/12/23 10:32:24;;;;;;;0.60;0.60;;;;;;;8.58;65.14;95698.00;4987009;28;20058;-66
2023/12/23 10:34:58;;;;;;;0.70;0.70;;;;;;;8.66;65.72;95697.63;4987725;28;20050;-65
2023/12/23 10:37:26;;;;;;;0.70;0.70;;;;;;;8.89;64.17;95683.47;4987365;28;20591;-66
2023/12/23 10:40:16;;;;;;;0.70;0.70;;;;;;;9.06;62.92;95688.22;4986876;28;20058;-66
2023/12/23 10:42:44;;;;;;;0.70;0.70;;;;;;;9.32;62.54;95701.66;4985677;28;20056;-67
2023/12/23 10:45:12;;;;;;;0.60;0.60;;;;;;;9.27;61.23;95721.41;4987031;28;20053;-68
2023/12/23 10:47:39;;;;;;;0.70;0.70;;;;;;;9.11;60.17;95690.59;4987005;28;20062;-66
2023/12/23 10:50:08;;;;;;;0.70;0.70;;;;;;;9.15;60.77;95664.56;4986755;28;20058;-67
2023/12/23 10:52:36;;;;;;;0.70;0.70;;;;;;;9.14;60.92;95673.25;4987115;28;20050;-66
2023/12/23 10:55:04;;;;;;;0.70;0.70;;;;;;;9.55;59.91;95704.03;4986879;28;20097;-66
2023/12/23 10:57:31;;;;;;;0.80;0.80;;;;;;;9.37;58.27;95670.88;5001595;28;20054;-67
2023/12/23 10:59:58;;;;;;;0.70;0.70;;;;;;;9.66;58.30;95677.94;4986541;28;20532;-67
2023/12/23 11:02:34;;;;;;;0.70;0.70;;;;;;;9.29;56.66;95658.25;4986680;28;20348;-65
2023/12/23 11:05:06;;;;;;;0.70;0.70;;;;;;;9.37;55.90;95664.56;4986008;28;20054;-66
2023/12/23 11:07:53;;;;;;;0.70;0.70;;;;;;;9.72;56.21;95690.16;4986058;28;20543;-66
2023/12/23 11:10:30;;;;;;;0.70;0.70;;;;;;;8.74;54.21;95525.31;5000429;28;20457;-66
2023/12/23 11:12:58;;;;;;;0.80;0.80;;;;;;;9.85;55.00;95663.69;4986614;28;20493;-66
2023/12/23 11:15:26;;;;;;;0.77;0.77;;;;;;;9.71;53.59;95713.47;4986776;28;20054;-65
2023/12/23 11:17:54;;;;;;;0.77;0.77;;;;;;;9.82;54.87;95670.00;4986409;28;20146;-67
2023/12/23 11:20:35;;;;;;;0.70;0.70;;;;;;;9.52;54.54;95702.84;4984704;28;20073;-67
2023/12/23 11:23:28;;;;;;;0.70;0.70;;;;;;;9.54;55.37;95702.44;5000748;28;20046;-65
2023/12/23 11:25:55;;;;;;;0.80;0.80;;;;;;;9.52;54.82;95694.53;5001208;28;20058;-65
2023/12/23 11:28:25;;;;;;;0.70;0.70;;;;;;;9.48;55.57;95648.75;4986445;28;20497;-67
2023/12/23 11:30:57;;;;;;;0.70;0.70;;;;;;;9.59;55.90;95683.50;4986235;28;20117;-67
2023/12/23 11:33:27;;;;;;;0.70;0.70;;;;;;;9.24;55.34;95622.72;4985853;28;20151;-66
2023/12/23 11:35:58;;;;;;;0.70;0.70;;;;;;;7.59;54.73;95275.97;4986285;28;20062;-66
2023/12/23 11:38:28;;;;;;;0.80;0.80;;;;;;;9.76;54.34;95583.13;4985103;28;20309;-65
2023/12/23 11:40:56;;;;;;;0.80;0.80;;;;;;;9.15;54.17;95464.91;4985962;28;20055;-67